Time;durP1;ratioP1;P1;durP2;ratioP2;P2;SDS_P1;SDS_P2;PMS_P1;PMS_P2;Temp;Humidity;BMP_temperature;BMP_pressure;BME280_temperature;BME280_humidity;BME280_pressure;Samples;Min_cycle;Max_cycle;Signal;HPM_P1;HPM_P2
2021/06/08 04:00:34;;;;;;;20.25;18.55;;;16.50;99.90;;;;;;5972780;23;20711;31
2021/06/08 04:03:03;;;;;;;19.40;17.80;;;16.60;99.90;;;;;;4894900;29;20837;-67
2021/06/08 04:05:30;;;;;;;19.90;18.10;;;16.60;99.90;;;;;;4897424;29;20478;-67
2021/06/08 04:07:56;;;;;;;18.60;16.93;;;16.70;99.90;;;;;;4896670;29;20475;-67
2021/06/08 04:10:23;;;;;;;19.10;17.30;;;16.70;99.90;;;;;;4897043;29;20463;-66
2021/06/08 04:12:50;;;;;;;17.87;16.37;;;16.80;99.90;;;;;;4896160;29;20479;-67
2021/06/08 04:15:17;;;;;;;17.97;16.37;;;16.80;99.90;;;;;;4897175;29;20467;-67
2021/06/08 04:17:43;;;;;;;18.07;16.47;;;16.90;99.90;;;;;;4896997;29;20820;-67
2021/06/08 04:20:12;;;;;;;18.30;16.83;;;16.90;99.90;;;;;;4896892;29;20492;-67
2021/06/08 04:22:40;;;;;;;16.50;15.20;;;17.00;99.90;;;;;;4895973;29;20523;-66
2021/06/08 04:25:08;;;;;;;18.40;16.80;;;17.10;99.90;;;;;;4896942;29;20573;-65
2021/06/08 04:27:35;;;;;;;18.03;16.63;;;17.20;99.90;;;;;;4896133;29;20479;-69
2021/06/08 04:30:02;;;;;;;17.37;15.87;;;17.30;99.90;;;;;;4897223;29;20550;-69
2021/06/08 04:32:31;;;;;;;17.30;16.00;;;17.30;99.90;;;;;;4896711;29;20492;-70
2021/06/08 04:34:58;;;;;;;17.70;16.33;;;17.30;99.90;;;;;;4897066;29;20482;-70
2021/06/08 04:37:25;;;;;;;16.57;15.07;;;17.40;99.90;;;;;;4896469;29;20467;-70
2021/06/08 04:39:51;;;;;;;17.10;15.70;;;17.40;99.90;;;;;;4897137;29;20491;-70
2021/06/08 04:42:19;;;;;;;17.43;15.77;;;17.40;99.90;;;;;;4895857;29;20999;-70
2021/06/08 04:44:47;;;;;;;16.60;15.30;;;17.40;99.90;;;;;;4897019;29;20471;-70
2021/06/08 04:47:15;;;;;;;15.87;14.77;;;17.50;99.90;;;;;;4896533;29;20468;-70
2021/06/08 04:49:41;;;;;;;16.87;15.57;;;17.50;99.90;;;;;;4896656;29;20979;-70
2021/06/08 04:52:08;;;;;;;17.13;15.67;;;17.50;99.90;;;;;;4898383;29;20498;-70
2021/06/08 04:54:36;;;;;;;17.87;16.30;;;17.50;99.90;;;;;;4899846;29;20467;-70
2021/06/08 04:57:05;;;;;;;16.97;15.47;;;17.60;99.90;;;;;;4899446;29;20482;-70
2021/06/08 04:59:35;;;;;;;16.60;15.20;;;17.60;99.90;;;;;;4899722;29;20474;-72
2021/06/08 05:02:05;;;;;;;16.43;15.13;;;17.60;99.90;;;;;;4899540;29;20507;-70
2021/06/08 05:04:35;;;;;;;16.03;14.73;;;17.70;99.90;;;;;;4899982;29;20914;-70
2021/06/08 05:07:06;;;;;;;15.30;14.10;;;17.70;99.90;;;;;;4899479;29;20623;-69
2021/06/08 05:09:39;;;;;;;16.70;15.40;;;17.70;99.90;;;;;;4899006;29;20464;-69
2021/06/08 05:12:09;;;;;;;16.53;15.13;;;17.70;99.90;;;;;;4898932;29;21103;-68
2021/06/08 05:14:38;;;;;;;15.73;14.53;;;17.80;99.90;;;;;;4899477;29;20488;-69
2021/06/08 05:17:04;;;;;;;15.90;14.70;;;17.90;99.90;;;;;;4899565;29;20467;-69
2021/06/08 05:19:33;;;;;;;16.17;14.93;;;17.90;99.90;;;;;;4899213;29;20467;-69
2021/06/08 05:22:01;;;;;;;16.93;15.63;;;18.00;99.90;;;;;;4899309;29;20483;-69
2021/06/08 05:24:27;;;;;;;16.27;14.90;;;18.00;99.90;;;;;;4898905;29;20472;-69
2021/06/08 05:26:55;;;;;;;16.63;15.37;;;18.00;99.90;;;;;;4899204;29;20527;-69
2021/06/08 05:29:22;;;;;;;16.13;14.73;;;18.00;99.90;;;;;;4899268;29;20478;-69
2021/06/08 05:31:49;;;;;;;16.93;15.47;;;18.10;99.90;;;;;;4898870;29;20987;-68
2021/06/08 05:34:19;;;;;;;15.90;14.60;;;18.20;99.90;;;;;;4898955;29;20490;-69
2021/06/08 05:36:46;;;;;;;15.57;14.17;;;18.30;99.90;;;;;;4899371;29;21067;-68
2021/06/08 05:39:12;;;;;;;16.43;15.23;;;18.40;99.90;;;;;;4898704;29;20833;-69
2021/06/08 05:41:39;;;;;;;15.97;14.77;;;18.40;99.90;;;;;;4898972;29;20499;-69
2021/06/08 05:44:10;;;;;;;15.43;14.27;;;18.50;99.90;;;;;;4899027;29;20964;-70
2021/06/08 05:46:37;;;;;;;15.43;14.20;;;18.40;99.90;;;;;;4898835;29;20467;-67
2021/06/08 05:49:05;;;;;;;14.50;13.40;;;18.50;99.90;;;;;;4899084;29;20475;-66
2021/06/08 05:51:33;;;;;;;15.60;14.47;;;18.50;99.90;;;;;;4898731;29;20589;-66
2021/06/08 05:54:00;;;;;;;14.93;13.83;;;18.50;99.90;;;;;;4898785;29;20472;-67
2021/06/08 05:56:31;;;;;;;16.60;15.20;;;18.60;99.90;;;;;;4900445;29;20631;-68
2021/06/08 05:58:58;;;;;;;14.33;13.33;;;18.50;99.90;;;;;;4898223;29;20955;-66
2021/06/08 06:01:26;;;;;;;16.03;14.70;;;18.50;99.90;;;;;;4898004;29;20495;-66
2021/06/08 06:03:53;;;;;;;14.50;13.30;;;18.40;99.90;;;;;;4898147;29;20476;-66
2021/06/08 06:06:20;;;;;;;14.83;13.63;;;18.40;99.90;;;;;;4898714;29;20812;-65
2021/06/08 06:08:46;;;;;;;17.00;15.20;;;18.50;99.90;;;;;;4897995;29;20780;-65
2021/06/08 06:11:14;;;;;;;14.60;13.50;;;18.70;99.90;;;;;;4898989;29;20853;-65
2021/06/08 06:13:47;;;;;;;15.83;14.63;;;18.80;99.90;;;;;;4897715;29;20503;-65
2021/06/08 06:16:16;;;;;;;14.10;13.00;;;19.10;99.90;;;;;;4898721;29;20507;-65
2021/06/08 06:18:44;;;;;;;13.80;12.60;;;19.20;99.90;;;;;;4898456;29;20587;-65
2021/06/08 06:21:11;;;;;;;14.30;13.10;;;19.30;99.90;;;;;;4897965;29;20502;-66
2021/06/08 06:23:39;;;;;;;13.03;12.23;;;19.30;99.90;;;;;;4897250;29;20463;-66
2021/06/08 06:26:05;;;;;;;13.60;12.70;;;19.30;99.90;;;;;;4897824;29;20476;-66
2021/06/08 06:28:32;;;;;;;14.80;13.60;;;19.30;99.90;;;;;;4897230;29;20549;-65
2021/06/08 06:30:59;;;;;;;13.57;12.67;;;19.40;99.90;;;;;;4898035;29;21047;-65
2021/06/08 06:33:25;;;;;;;14.03;12.80;;;19.30;99.90;;;;;;4897661;29;20467;-65
2021/06/08 06:35:57;;;;;;;13.67;12.67;;;19.30;99.90;;;;;;4898422;29;20478;-65
2021/06/08 06:38:24;;;;;;;13.83;12.47;;;19.40;99.90;;;;;;4897460;29;20471;-66
2021/06/08 06:40:52;;;;;;;14.17;13.07;;;19.40;99.90;;;;;;4897617;29;20503;-65
2021/06/08 06:43:23;;;;;;;13.97;12.97;;;19.40;99.90;;;;;;4897135;29;20839;-65
2021/06/08 06:45:52;;;;;;;13.97;12.77;;;19.40;99.90;;;;;;4898008;29;20955;-70
2021/06/08 06:48:18;;;;;;;14.43;13.23;;;19.40;99.90;;;;;;4897617;29;20490;-69
2021/06/08 06:50:46;;;;;;;15.03;13.90;;;19.40;99.90;;;;;;4897871;29;20564;-69
2021/06/08 06:53:16;;;;;;;15.50;14.30;;;19.50;99.90;;;;;;4896838;29;20471;-70
2021/06/08 06:55:43;;;;;;;15.57;14.23;;;19.50;99.90;;;;;;4898055;29;20495;-68
2021/06/08 06:58:11;;;;;;;14.80;13.77;;;19.30;99.90;;;;;;4897164;29;20539;-69
2021/06/08 07:00:37;;;;;;;13.83;12.73;;;19.40;99.90;;;;;;4897955;29;20499;-69
2021/06/08 07:03:06;;;;;;;14.40;13.10;;;19.40;99.90;;;;;;4898152;29;20467;-71
2021/06/08 07:05:33;;;;;;;14.83;13.67;;;19.60;99.90;;;;;;4897995;29;20475;-70
2021/06/08 07:08:03;;;;;;;14.00;12.80;;;19.60;99.90;;;;;;4896998;29;20471;-70
2021/06/08 07:10:31;;;;;;;14.83;13.40;;;19.60;99.90;;;;;;4897673;29;20483;-70
2021/06/08 07:13:03;;;;;;;13.47;12.23;;;19.70;99.90;;;;;;4896875;29;20472;-70
2021/06/08 07:15:30;;;;;;;13.63;12.63;;;19.80;99.90;;;;;;4897291;29;20550;-69
2021/06/08 07:17:57;;;;;;;13.17;12.27;;;20.00;99.90;;;;;;4897385;29;20478;-70
2021/06/08 07:20:25;;;;;;;14.27;13.20;;;20.10;99.90;;;;;;4897442;29;20837;-71
2021/06/08 07:22:52;;;;;;;13.70;12.60;;;20.30;99.90;;;;;;4896856;29;20486;-71
2021/06/08 07:25:21;;;;;;;13.03;12.07;;;20.60;99.90;;;;;;4897541;29;20784;-71
2021/06/08 07:27:50;;;;;;;12.83;12.07;;;20.60;99.90;;;;;;4896894;29;20467;-71
2021/06/08 07:30:18;;;;;;;13.27;12.13;;;21.20;99.90;;;;;;4897399;29;20471;-71
2021/06/08 07:32:53;;;;;;;11.70;10.80;;;21.50;99.90;;;;;;4896951;29;20478;-71
2021/06/08 07:35:27;;;;;;;11.57;10.77;;;21.70;99.90;;;;;;4897547;29;20483;-71
2021/06/08 07:37:56;;;;;;;11.57;10.83;;;22.30;99.90;;;;;;4896675;29;20480;-71
2021/06/08 07:40:26;;;;;;;12.10;11.20;;;22.70;99.90;;;;;;4897249;29;20499;-71
2021/06/08 07:42:56;;;;;;;13.33;12.43;;;22.90;99.90;;;;;;4896553;29;20483;-71
2021/06/08 07:45:30;;;;;;;11.63;10.90;;;22.80;99.90;;;;;;4897257;29;20468;-69
2021/06/08 07:47:58;;;;;;;11.43;10.70;;;22.50;99.90;;;;;;4897327;29;20530;-70
2021/06/08 07:50:29;;;;;;;12.23;11.27;;;22.30;99.90;;;;;;4897660;29;20781;-70
2021/06/08 07:52:56;;;;;;;12.43;11.40;;;22.00;99.90;;;;;;4896876;29;20471;-72
2021/06/08 07:55:22;;;;;;;12.90;12.00;;;21.90;99.90;;;;;;4897471;29;20952;-71
2021/06/08 07:57:49;;;;;;;12.37;11.43;;;21.90;99.90;;;;;;4896574;29;20474;-71
2021/06/08 08:00:18;;;;;;;12.40;11.20;;;21.80;99.90;;;;;;4897189;29;20495;-71
2021/06/08 08:02:46;;;;;;;12.87;12.03;;;21.70;99.90;;;;;;4896931;29;20472;-71
2021/06/08 08:05:15;;;;;;;12.60;11.60;;;21.60;99.90;;;;;;4897346;29;20554;-71
2021/06/08 08:07:42;;;;;;;11.73;11.13;;;21.80;99.90;;;;;;4896395;29;20558;-71
2021/06/08 08:10:09;;;;;;;13.03;12.03;;;21.80;99.90;;;;;;4896918;29;20463;-70
2021/06/08 08:12:37;;;;;;;12.53;11.63;;;21.70;99.90;;;;;;4896035;29;20475;-71
2021/06/08 08:15:04;;;;;;;12.37;11.63;;;21.80;99.90;;;;;;4897127;29;20478;-71
2021/06/08 08:17:33;;;;;;;12.00;11.00;;;21.80;99.90;;;;;;4896735;29;20542;-70
2021/06/08 08:20:01;;;;;;;12.47;11.67;;;21.90;99.90;;;;;;4896698;29;21014;-72
2021/06/08 08:22:28;;;;;;;12.63;11.70;;;21.90;99.90;;;;;;4895911;29;20880;-71
2021/06/08 08:24:54;;;;;;;12.57;11.67;;;21.90;99.90;;;;;;4897541;29;20475;-71
2021/06/08 08:27:20;;;;;;;12.20;11.20;;;21.70;99.90;;;;;;4900178;29;20467;-71
2021/06/08 08:29:46;;;;;;;12.90;12.10;;;21.70;99.90;;;;;;4900622;29;20992;-72
2021/06/08 08:32:14;;;;;;;12.20;11.40;;;21.90;99.90;;;;;;4900015;29;20487;-68
2021/06/08 08:34:42;;;;;;;11.80;11.10;;;22.10;99.90;;;;;;4900525;29;20570;-67
2021/06/08 08:37:09;;;;;;;11.30;10.40;;;22.40;99.90;;;;;;4900294;29;20493;-67
2021/06/08 08:39:35;;;;;;;13.30;12.47;;;22.40;99.90;;;;;;4899921;29;20559;-67
2021/06/08 08:42:02;;;;;;;11.43;10.80;;;22.40;99.90;;;;;;4899829;29;20495;-68
2021/06/08 08:44:28;;;;;;;12.10;11.30;;;22.40;99.90;;;;;;4900170;29;20486;-67
2021/06/08 08:46:55;;;;;;;11.50;10.80;;;22.50;99.90;;;;;;4900129;29;20518;-68
2021/06/08 08:49:21;;;;;;;10.93;10.23;;;22.50;99.90;;;;;;4899784;29;20467;-67
2021/06/08 08:51:50;;;;;;;11.33;10.73;;;22.30;99.90;;;;;;4899708;29;20886;-68
2021/06/08 08:54:21;;;;;;;12.00;11.10;;;21.90;99.90;;;;;;4899139;29;20839;-67
2021/06/08 08:56:49;;;;;;;11.93;11.13;;;21.90;99.90;;;;;;4899570;29;20582;-67
2021/06/08 08:59:19;;;;;;;11.20;10.43;;;22.10;99.90;;;;;;4899739;29;20478;-67
2021/06/08 09:01:48;;;;;;;11.93;11.13;;;22.40;99.90;;;;;;4899528;29;20629;-67
2021/06/08 09:04:14;;;;;;;12.47;11.27;;;22.60;99.90;;;;;;4899506;29;20475;-67
2021/06/08 09:06:41;;;;;;;12.03;10.57;;;22.60;99.90;;;;;;4899484;29;20474;-67
2021/06/08 09:09:10;;;;;;;12.43;11.43;;;22.80;99.90;;;;;;4899488;29;20471;-67
2021/06/08 09:11:38;;;;;;;11.40;10.57;;;22.90;99.90;;;;;;4899051;29;20550;-67
2021/06/08 09:14:05;;;;;;;11.30;10.40;;;23.00;99.90;;;;;;4899390;29;20665;-65
2021/06/08 09:16:32;;;;;;;11.63;11.03;;;23.20;99.90;;;;;;4899544;29;20894;-67
2021/06/08 09:19:02;;;;;;;12.27;11.47;;;23.30;99.90;;;;;;4899225;29;20515;-66
2021/06/08 09:21:31;;;;;;;11.17;10.50;;;23.20;99.90;;;;;;4899071;29;20828;-66
2021/06/08 09:24:17;;;;;;;11.17;10.40;;;23.30;99.90;;;;;;4899000;29;20562;-66
2021/06/08 09:26:51;;;;;;;11.17;10.27;;;23.30;99.90;;;;;;4898852;29;20475;-66
2021/06/08 09:29:32;;;;;;;11.83;10.93;;;23.30;99.90;;;;;;4899337;29;20439;-67
2021/06/08 09:32:21;;;;;;;12.10;11.33;;;23.30;99.90;;;;;;4898599;29;21074;-67
2021/06/08 09:34:51;;;;;;;10.40;9.70;;;23.20;99.90;;;;;;4899175;29;20472;-67
2021/06/08 09:37:30;;;;;;;10.10;9.30;;;23.30;99.90;;;;;;4897625;29;20467;-69
2021/06/08 09:39:58;;;;;;;10.40;9.67;;;23.40;99.90;;;;;;4898849;29;20562;-69
2021/06/08 09:42:26;;;;;;;8.60;8.03;;;23.60;99.90;;;;;;4898367;29;20500;-69
2021/06/08 09:44:53;;;;;;;8.60;8.20;;;23.70;99.90;;;;;;4898860;29;20936;-69
2021/06/08 09:47:28;;;;;;;8.47;7.97;;;23.80;99.90;;;;;;4898772;29;20471;-69
2021/06/08 09:49:54;;;;;;;8.03;7.63;;;23.90;99.90;;;;;;4898697;29;20590;-67
2021/06/08 09:52:21;;;;;;;8.70;8.20;;;23.80;99.90;;;;;;4897745;29;20805;-67
2021/06/08 09:54:50;;;;;;;8.30;7.80;;;23.80;99.90;;;;;;4898838;29;20475;-68
2021/06/08 09:57:23;;;;;;;8.10;7.80;;;23.70;99.90;;;;;;4898160;29;20480;-68
2021/06/08 09:59:52;;;;;;;8.37;7.57;;;23.60;99.90;;;;;;4898257;29;20468;-68
2021/06/08 10:02:27;;;;;;;8.50;8.10;;;23.50;99.90;;;;;;4898106;29;20499;-68
2021/06/08 10:05:13;;;;;;;8.50;8.10;;;22.90;99.90;;;;;;4898710;29;20478;-68
2021/06/08 10:07:40;;;;;;;7.93;7.53;;;22.80;99.90;;;;;;4898636;29;20478;-68
2021/06/08 10:10:09;;;;;;;9.23;8.60;;;22.90;99.90;;;;;;4898530;29;20475;-68
2021/06/08 10:12:52;;;;;;;9.30;8.80;;;23.00;99.90;;;;;;4897718;29;20542;-67
2021/06/08 10:15:19;;;;;;;8.07;7.33;;;23.00;99.90;;;;;;4897808;29;20491;-68
2021/06/08 10:17:45;;;;;;;8.70;8.20;;;23.10;99.90;;;;;;4898188;29;20467;-67
2021/06/08 10:20:19;;;;;;;9.83;9.23;;;23.30;99.90;;;;;;4897867;29;20502;-68
2021/06/08 10:22:46;;;;;;;8.27;7.77;;;23.30;99.90;;;;;;4897280;29;20467;-67
2021/06/08 10:25:12;;;;;;;7.90;7.37;;;23.30;99.90;;;;;;4898180;29;20467;-68
2021/06/08 10:27:40;;;;;;;8.80;8.30;;;23.40;99.90;;;;;;4897522;29;20491;-68
2021/06/08 10:30:09;;;;;;;7.90;7.50;;;23.50;99.90;;;;;;4898145;29;20470;-68
2021/06/08 10:32:36;;;;;;;8.10;7.70;;;23.40;99.90;;;;;;4897800;29;20522;-67
2021/06/08 10:35:02;;;;;;;7.57;7.20;;;23.40;99.90;;;;;;4897989;29;20986;-67
2021/06/08 10:37:28;;;;;;;8.17;7.73;;;23.30;99.90;;;;;;4897061;29;20960;-67
2021/06/08 10:39:58;;;;;;;6.73;6.40;;;23.40;99.90;;;;;;4897816;29;20858;-68
2021/06/08 10:42:26;;;;;;;8.20;7.70;;;23.50;99.90;;;;;;4896688;29;20491;-68
2021/06/08 10:45:00;;;;;;;7.63;7.13;;;23.60;99.90;;;;;;4898111;29;20561;-68
2021/06/08 10:47:34;;;;;;;7.70;7.20;;;23.90;99.90;;;;;;4897334;29;20493;-68
2021/06/08 10:50:01;;;;;;;6.77;6.37;;;23.80;99.90;;;;;;4897694;29;20467;-68
2021/06/08 10:52:28;;;;;;;6.80;6.40;;;23.60;99.90;;;;;;4896519;29;20884;-70
2021/06/08 10:54:54;;;;;;;6.27;6.03;;;23.60;99.90;;;;;;4897140;29;20471;-70
2021/06/08 10:57:21;;;;;;;6.10;5.90;;;23.60;99.90;;;;;;4897005;29;20522;-70
2021/06/08 10:59:49;;;;;;;6.30;5.80;;;23.50;99.90;;;;;;4897482;29;20463;-70
2021/06/08 11:02:45;;;;;;;5.40;5.30;;;23.80;99.90;;;;;;4896735;29;20529;-69
2021/06/08 11:05:15;;;;;;;6.30;6.00;;;24.00;99.90;;;;;;4895628;29;20553;-69
2021/06/08 11:07:52;;;;;;;5.70;5.50;;;24.10;99.90;;;;;;4897006;29;20546;-70
2021/06/08 11:11:02;;;;;;;5.87;5.57;;;24.00;99.90;;;;;;4897250;29;20944;-71
2021/06/08 11:13:45;;;;;;;6.37;6.13;;;24.10;99.90;;;;;;4896361;29;20459;-70
2021/06/08 11:16:32;;;;;;;6.00;5.77;;;24.00;99.90;;;;;;4897228;29;20459;-71
2021/06/08 11:18:59;;;;;;;5.00;4.80;;;24.10;99.90;;;;;;4897201;29;20483;-71
2021/06/08 11:21:29;;;;;;;5.83;5.53;;;24.10;99.90;;;;;;4897308;29;20551;-69
2021/06/08 11:23:56;;;;;;;6.03;5.70;;;24.10;99.90;;;;;;4896451;29;20527;-71
2021/06/08 11:26:49;;;;;;;6.53;6.23;;;24.30;99.90;;;;;;4897103;29;20479;-71
2021/06/08 11:29:44;;;;;;;6.27;5.83;;;24.30;99.90;;;;;;4897032;29;21019;-71
2021/06/08 11:32:32;;;;;;;6.40;5.83;;;24.60;99.90;;;;;;4896800;29;20584;-70
2021/06/08 11:35:21;;;;;;;6.33;5.93;;;24.70;99.90;;;;;;4896880;29;20478;-71
2021/06/08 11:37:54;;;;;;;6.07;5.67;;;24.80;99.90;;;;;;4896783;29;20475;-71
2021/06/08 11:41:01;;;;;;;5.50;5.30;;;25.00;99.90;;;;;;4897003;29;20514;-71
2021/06/08 11:43:49;;;;;;;5.70;5.50;;;24.80;99.90;;;;;;4896274;29;20499;-71
2021/06/08 11:46:16;;;;;;;5.47;5.20;;;24.70;99.90;;;;;;4897022;29;21019;-71
2021/06/08 11:48:44;;;;;;;5.40;5.20;;;24.60;99.90;;;;;;4897060;29;20824;-71
2021/06/08 11:51:33;;;;;;;5.50;5.30;;;24.50;99.90;;;;;;4897132;29;20479;-71
2021/06/08 11:54:02;;;;;;;6.20;5.97;;;24.70;99.90;;;;;;4896730;29;20512;-72
2021/06/08 11:56:52;;;;;;;6.10;5.80;;;24.90;99.90;;;;;;4896826;29;20554;-72
2021/06/08 11:59:20;;;;;;;5.20;5.00;;;25.00;99.90;;;;;;4896917;29;20472;-70
2021/06/08 12:01:49;;;;;;;5.77;5.57;;;24.90;99.90;;;;;;4900131;29;20499;-71
2021/06/08 12:04:16;;;;;;;5.43;5.13;;;24.80;99.90;;;;;;4900766;29;20518;-71
2021/06/08 12:07:13;;;;;;;6.03;5.60;;;24.70;99.90;;;;;;4900842;29;20471;-72
2021/06/08 12:09:46;;;;;;;5.57;5.37;;;24.70;99.90;;;;;;4900798;29;20478;-71
2021/06/08 12:12:14;;;;;;;5.30;5.00;;;24.60;99.90;;;;;;4899925;29;20558;-70
2021/06/08 12:14:53;;;;;;;5.87;5.67;;;24.50;99.90;;;;;;4900772;29;20462;-70
2021/06/08 12:17:19;;;;;;;5.50;5.30;;;24.50;99.90;;;;;;4900578;29;20824;-70
2021/06/08 12:19:46;;;;;;;5.70;5.40;;;24.60;99.90;;;;;;4900586;29;20522;-70
2021/06/08 12:22:22;;;;;;;6.20;5.90;;;24.70;99.90;;;;;;4899890;29;20579;-69
2021/06/08 12:24:59;;;;;;;5.27;5.17;;;24.90;99.90;;;;;;4900772;29;20530;-70
2021/06/08 12:27:40;;;;;;;5.13;4.83;;;25.00;99.90;;;;;;4900003;29;20507;-70
2021/06/08 12:30:09;;;;;;;5.60;5.40;;;25.00;99.90;;;;;;4900285;29;20475;-70
2021/06/08 12:32:37;;;;;;;5.37;5.17;;;24.90;99.90;;;;;;4899898;29;20975;-70
2021/06/08 12:35:05;;;;;;;5.33;5.10;;;25.00;99.90;;;;;;4900144;29;20534;-70
2021/06/08 12:37:31;;;;;;;5.83;5.43;;;25.00;99.90;;;;;;4899553;29;20545;-70
2021/06/08 12:39:59;;;;;;;5.73;5.40;;;25.20;99.90;;;;;;4900510;29;20467;-70
2021/06/08 12:42:26;;;;;;;4.73;4.60;;;25.20;99.90;;;;;;4899221;29;20503;-70
2021/06/08 12:44:54;;;;;;;4.80;4.50;;;25.30;99.90;;;;;;4900182;29;20478;-70
2021/06/08 12:47:22;;;;;;;4.67;4.27;;;25.30;99.90;;;;;;4899733;29;20471;-70
2021/06/08 12:49:48;;;;;;;4.63;4.50;;;25.20;99.90;;;;;;4900108;29;20482;-70
2021/06/08 12:52:18;;;;;;;4.37;4.10;;;25.00;99.90;;;;;;4899232;29;20521;-69
2021/06/08 12:54:46;;;;;;;4.47;4.37;;;24.90;99.90;;;;;;4900160;29;20471;-70
2021/06/08 12:57:23;;;;;;;5.00;4.70;;;25.10;99.90;;;;;;4899465;29;20530;-70
2021/06/08 12:59:55;;;;;;;4.20;4.10;;;25.00;99.90;;;;;;4900073;29;20467;-69
2021/06/08 13:02:22;;;;;;;4.83;4.73;;;25.10;99.90;;;;;;4899256;29;20967;-70
2021/06/08 13:04:50;;;;;;;4.70;4.40;;;24.90;99.90;;;;;;4899898;29;20882;-70
2021/06/08 13:07:20;;;;;;;4.23;4.10;;;24.80;99.90;;;;;;4898960;29;20971;-69
2021/06/08 13:09:47;;;;;;;4.30;4.20;;;25.00;99.90;;;;;;4899551;29;20471;-70
2021/06/08 13:12:16;;;;;;;4.30;4.20;;;25.00;99.90;;;;;;4897691;29;20968;-69
2021/06/08 13:14:43;;;;;;;4.50;4.20;;;25.30;99.90;;;;;;4899619;29;20467;-70
2021/06/08 13:17:23;;;;;;;4.53;4.30;;;25.30;99.90;;;;;;4899399;29;20487;-69
2021/06/08 13:19:50;;;;;;;4.07;3.87;;;25.00;99.90;;;;;;4899604;29;20471;-70
2021/06/08 13:22:18;;;;;;;4.03;3.93;;;25.00;99.90;;;;;;4898653;29;20558;-69
2021/06/08 13:24:46;;;;;;;3.63;3.57;;;25.10;99.90;;;;;;4899917;29;20518;-69
2021/06/08 13:27:16;;;;;;;4.47;4.27;;;25.20;99.90;;;;;;4898723;29;21027;-69
2021/06/08 13:29:43;;;;;;;3.90;3.87;;;25.40;99.90;;;;;;4899467;29;20467;-70
2021/06/08 13:32:21;;;;;;;4.27;4.17;;;25.50;99.90;;;;;;4898765;29;20522;-70
2021/06/08 13:35:04;;;;;;;3.67;3.57;;;25.50;99.90;;;;;;4899026;29;20471;-71
2021/06/08 13:37:30;;;;;;;3.93;3.83;;;25.60;99.90;;;;;;4898286;29;20586;-71
2021/06/08 13:39:57;;;;;;;3.63;3.63;;;25.40;99.90;;;;;;4899081;29;20486;-71
2021/06/08 13:42:24;;;;;;;4.10;4.00;;;25.50;99.90;;;;;;4897834;29;20502;-71
2021/06/08 13:45:01;;;;;;;3.83;3.73;;;25.50;99.90;;;;;;4898819;29;20838;-71
2021/06/08 13:47:29;;;;;;;4.27;4.17;;;25.50;99.90;;;;;;4898778;29;20470;-71
2021/06/08 13:49:55;;;;;;;4.17;4.07;;;25.50;99.90;;;;;;4898662;29;20503;-71
2021/06/08 13:52:22;;;;;;;4.37;4.27;;;25.40;99.90;;;;;;4897959;29;20494;-71
2021/06/08 13:54:48;;;;;;;4.00;3.90;;;25.40;99.90;;;;;;4899028;29;20535;-71
2021/06/08 13:57:20;;;;;;;4.00;3.90;;;25.40;99.90;;;;;;4897903;29;21031;-70
2021/06/08 14:02:46;;;;;;;4.27;4.07;;;25.50;99.90;;;;;;4897955;29;20508;-69
2021/06/08 14:05:26;;;;;;;4.23;4.03;;;25.60;99.90;;;;;;4898582;29;20487;-69
2021/06/08 14:07:53;;;;;;;4.43;4.30;;;25.50;99.90;;;;;;4897745;29;20554;-70
2021/06/08 14:10:20;;;;;;;3.77;3.67;;;25.50;99.90;;;;;;4898136;29;20471;-71
2021/06/08 14:13:04;;;;;;;4.00;3.80;;;25.40;99.90;;;;;;4897451;29;20471;-69
2021/06/08 14:15:33;;;;;;;4.63;4.50;;;25.30;99.90;;;;;;4898805;29;20471;-70
2021/06/08 14:17:59;;;;;;;4.47;4.37;;;25.10;99.90;;;;;;4898078;29;20478;-70
2021/06/08 14:20:25;;;;;;;4.90;4.67;;;25.10;99.90;;;;;;4898108;29;20479;-70
2021/06/08 14:22:51;;;;;;;4.47;4.20;;;25.00;99.90;;;;;;4896925;29;20472;-70
2021/06/08 14:25:19;;;;;;;4.20;4.00;;;25.00;99.90;;;;;;4897818;29;20470;-69
2021/06/08 14:27:45;;;;;;;4.57;4.47;;;25.00;99.90;;;;;;4897632;29;20890;-70
2021/06/08 14:30:12;;;;;;;4.87;4.60;;;25.10;99.90;;;;;;4897998;29;20498;-70
2021/06/08 14:32:39;;;;;;;4.67;4.43;;;25.00;99.90;;;;;;4898112;29;20472;-70
2021/06/08 14:35:08;;;;;;;4.47;4.30;;;25.00;99.90;;;;;;4898207;29;20479;-71
2021/06/08 14:37:34;;;;;;;4.70;4.60;;;25.00;99.90;;;;;;4897354;29;20475;-69
2021/06/08 14:40:00;;;;;;;3.87;3.70;;;25.10;99.90;;;;;;4897466;29;20550;-69
2021/06/08 14:42:26;;;;;;;4.60;4.40;;;25.10;99.90;;;;;;4896963;29;20516;-70
2021/06/08 14:44:52;;;;;;;4.87;4.57;;;25.30;99.90;;;;;;4897933;29;20523;-70
2021/06/08 14:47:19;;;;;;;4.80;4.60;;;25.20;99.90;;;;;;4897375;29;20478;-72
2021/06/08 14:49:47;;;;;;;5.13;4.87;;;25.30;99.90;;;;;;4897828;29;20475;-71
2021/06/08 14:52:13;;;;;;;4.47;4.30;;;25.40;99.90;;;;;;4896853;29;20629;-69
2021/06/08 14:54:39;;;;;;;4.60;4.40;;;25.60;99.90;;;;;;4897525;29;20475;-69
2021/06/08 14:57:06;;;;;;;4.83;4.63;;;25.50;99.90;;;;;;4896949;29;20476;-71
2021/06/08 14:59:33;;;;;;;4.57;4.47;;;25.40;99.90;;;;;;4897444;29;20494;-70
2021/06/08 15:01:59;;;;;;;5.20;4.90;;;25.60;99.90;;;;;;4896978;29;20527;-70
2021/06/08 15:04:25;;;;;;;4.80;4.70;;;25.60;99.90;;;;;;4897230;29;20929;-71
2021/06/08 15:06:56;;;;;;;4.33;4.27;;;25.70;99.90;;;;;;4897308;29;20992;-70
2021/06/08 15:09:22;;;;;;;5.00;4.60;;;25.60;99.90;;;;;;4897002;29;20470;-70
2021/06/08 15:11:48;;;;;;;5.00;4.80;;;25.50;99.90;;;;;;4897120;29;20491;-71
2021/06/08 15:14:14;;;;;;;4.63;4.53;;;25.60;99.90;;;;;;4896895;29;20479;-71
2021/06/08 15:16:41;;;;;;;4.00;3.90;;;25.60;99.90;;;;;;4897227;29;20487;-70
2021/06/08 15:19:07;;;;;;;4.50;4.40;;;25.60;99.90;;;;;;4897158;29;20493;-70
2021/06/08 15:21:33;;;;;;;3.97;3.77;;;25.20;99.90;;;;;;4896810;29;20551;-70
2021/06/08 15:24:01;;;;;;;4.63;4.50;;;24.90;99.90;;;;;;4896677;29;20471;-70
2021/06/08 15:26:27;;;;;;;3.90;3.80;;;24.50;99.90;;;;;;4897033;29;20539;-70
2021/06/08 15:28:53;;;;;;;4.50;4.20;;;24.30;99.90;;;;;;4897177;29;20475;-70
2021/06/08 15:31:19;;;;;;;4.10;4.00;;;24.20;99.90;;;;;;4897079;29;20495;-68
2021/06/08 15:33:45;;;;;;;3.67;3.57;;;24.10;99.90;;;;;;4896628;29;20952;-69
2021/06/08 15:36:12;;;;;;;4.10;4.00;;;24.30;99.90;;;;;;4896339;29;20467;-69
2021/06/08 15:38:39;;;;;;;4.47;4.37;;;24.40;99.90;;;;;;4896751;29;20558;-71
2021/06/08 15:41:07;;;;;;;4.33;4.13;;;24.50;99.90;;;;;;4896796;29;20495;-70
2021/06/08 15:43:34;;;;;;;3.40;3.30;;;24.60;99.90;;;;;;4896290;29;20471;-70
2021/06/08 15:46:00;;;;;;;3.80;3.70;;;24.70;99.90;;;;;;4897040;29;20494;-70
2021/06/08 15:48:30;;;;;;;3.50;3.40;;;24.90;99.90;;;;;;4896672;29;20474;-70
2021/06/08 15:50:56;;;;;;;3.10;3.00;;;24.80;99.90;;;;;;4897006;29;20495;-70
2021/06/08 15:53:23;;;;;;;3.47;3.30;;;24.70;99.90;;;;;;4896240;29;20478;-70
2021/06/08 15:55:49;;;;;;;3.10;2.90;;;24.60;99.90;;;;;;4896812;29;20483;-70
2021/06/08 15:58:18;;;;;;;3.47;3.37;;;24.70;99.90;;;;;;4896143;29;20467;-70
2021/06/08 16:00:44;;;;;;;3.20;3.10;;;24.80;99.90;;;;;;4896851;29;20562;-70
2021/06/08 16:03:11;;;;;;;3.63;3.40;;;24.80;99.90;;;;;;4896500;29;20463;-68
2021/06/08 16:05:37;;;;;;;2.80;2.80;;;24.80;99.90;;;;;;4896671;29;20961;-68
2021/06/08 16:08:04;;;;;;;2.73;2.63;;;24.80;99.90;;;;;;4896034;29;20853;-67
2021/06/08 16:10:30;;;;;;;3.13;3.13;;;25.00;99.90;;;;;;4896546;29;20956;-67
2021/06/08 16:12:56;;;;;;;2.53;2.53;;;24.90;99.90;;;;;;4896203;29;20496;-67
2021/06/08 16:15:24;;;;;;;2.67;2.57;;;24.90;99.90;;;;;;4896651;29;20499;-67
2021/06/08 16:17:50;;;;;;;2.93;2.73;;;24.90;99.90;;;;;;4896627;29;20478;-68
2021/06/08 16:20:17;;;;;;;2.50;2.40;;;25.00;99.90;;;;;;4896453;29;20839;-67
2021/06/08 16:22:43;;;;;;;2.23;2.23;;;25.00;99.90;;;;;;4896194;29;20495;-67
2021/06/08 16:25:10;;;;;;;2.20;2.20;;;25.00;99.90;;;;;;4896740;29;20496;-67
2021/06/08 16:27:36;;;;;;;2.40;2.27;;;24.90;99.90;;;;;;4896197;29;20893;-67
2021/06/08 16:30:05;;;;;;;2.77;2.67;;;24.70;99.50;;;;;;4896753;29;20493;-66
2021/06/08 16:32:32;;;;;;;2.10;2.10;;;24.50;99.90;;;;;;4896267;29;20495;-66
2021/06/08 16:34:58;;;;;;;2.13;2.13;;;24.30;99.90;;;;;;4896719;29;20467;-67
2021/06/08 16:37:25;;;;;;;2.10;2.10;;;24.20;99.90;;;;;;4896105;29;20471;-68
2021/06/08 16:39:54;;;;;;;1.83;1.83;;;24.30;99.90;;;;;;4896916;29;20467;-69
2021/06/08 16:42:21;;;;;;;2.23;2.17;;;24.30;99.50;;;;;;4896195;29;20518;-68
2021/06/08 16:44:47;;;;;;;2.07;2.07;;;24.20;98.90;;;;;;4896473;29;20470;-69
2021/06/08 16:47:13;;;;;;;1.77;1.67;;;24.10;99.20;;;;;;4898548;29;21035;-69
2021/06/08 16:49:41;;;;;;;1.80;1.80;;;24.10;99.20;;;;;;4900316;29;20625;-71
2021/06/08 16:54:52;;;;;;;1.97;1.97;;;24.00;98.20;;;;;;4900042;29;20498;-70